createdAt,value
2019-04-20T05:26:36.317Z,102794.12
2019-04-20T05:29:01.368Z,102790.32
2019-04-20T05:31:34.881Z,102792.81
2019-04-20T05:34:19.926Z,102795.73
2019-04-20T05:36:53.028Z,102800.63
2019-04-20T05:39:29.788Z,102789.37
2019-04-20T05:41:53.240Z,102796.73
2019-04-20T05:44:26.272Z,102799.81
2019-04-20T05:47:09.277Z,102800.73
2019-04-20T05:49:34.890Z,102802.87
2019-04-20T05:52:22.129Z,102796.80
2019-04-20T05:54:48.994Z,102800.63
2019-04-20T05:57:22.319Z,102804.16
2019-04-20T05:59:54.310Z,102807.38
2019-04-20T06:02:18.426Z,102809.30
2019-04-20T06:05:00.508Z,102803.29
2019-04-20T06:07:27.071Z,102802.44
2019-04-20T06:09:59.664Z,102804.67
2019-04-20T06:12:32.025Z,102799.28
2019-04-20T06:15:15.506Z,102798.72
2019-04-20T06:17:59.618Z,102796.09
2019-04-20T06:20:39.142Z,102799.93
2019-04-20T06:23:34.571Z,102797.09
2019-04-20T06:26:12.735Z,102801.58
2019-04-20T06:28:26.730Z,102793.29
2019-04-20T06:30:59.488Z,102803.40
2019-04-20T06:34:30.139Z,102804.98
2019-04-20T06:36:52.668Z,102800.96
2019-04-20T06:39:27.726Z,102806.98
2019-04-20T06:42:07.195Z,102814.20
2019-04-20T06:44:33.215Z,102805.70
2019-04-20T06:47:15.475Z,102811.16
2019-04-20T06:49:32.950Z,102809.12
2019-04-20T06:55:08.732Z,102811.78
2019-04-20T06:57:45.085Z,102810.41
2019-04-20T07:00:35.050Z,102815.58
2019-04-20T07:02:53.057Z,102817.98
2019-04-20T07:08:06.835Z,102812.38
2019-04-20T07:10:37.609Z,102812.42
2019-04-20T07:12:55.466Z,102817.00
2019-04-20T07:15:36.541Z,102814.75
2019-04-20T07:18:16.956Z,102816.08
2019-04-20T07:21:00.498Z,102813.76
2019-04-20T07:23:57.628Z,102816.33
2019-04-20T07:26:12.829Z,102818.56
2019-04-20T07:28:51.185Z,102812.66
2019-04-20T07:31:08.671Z,102812.03
2019-04-20T07:33:49.599Z,102812.59
2019-04-20T07:36:21.514Z,102821.44
2019-04-20T07:39:00.708Z,102818.42
2019-04-20T07:41:26.330Z,102817.23
2019-04-20T07:44:04.431Z,102821.83
2019-04-20T07:46:43.875Z,102814.91
2019-04-20T07:48:58.054Z,102817.41
2019-04-20T07:51:16.223Z,102815.14
2019-04-20T07:54:10.605Z,102812.80
2019-04-20T07:56:37.510Z,102808.23
2019-04-20T07:58:52.679Z,102809.67
2019-04-20T08:01:52.982Z,102815.98
2019-04-20T08:04:28.839Z,102814.31
2019-04-20T08:06:51.874Z,102818.58
2019-04-20T08:09:25.806Z,102817.27
2019-04-20T08:12:22.132Z,102813.02
2019-04-20T08:15:01.429Z,102810.37
2019-04-20T08:17:48.571Z,102813.61
2019-04-20T08:19:50.998Z,102814.19
2019-04-20T08:22:27.077Z,102807.95
2019-04-20T08:24:52.256Z,102818.77
2019-04-20T08:27:14.846Z,102813.50
2019-04-20T08:30:01.860Z,102817.02
2019-04-20T08:33:05.227Z,102812.24
2019-04-20T08:35:51.265Z,102812.56
2019-04-20T08:38:36.890Z,102810.14
2019-04-20T08:40:44.161Z,102808.44
2019-04-20T08:43:32.708Z,102807.33
2019-04-20T08:45:56.373Z,102802.86
2019-04-20T08:48:23.154Z,102806.95
2019-04-20T08:50:53.250Z,102806.74
2019-04-20T08:53:43.081Z,102803.91
2019-04-20T08:55:53.438Z,102804.66
2019-04-20T08:58:11.420Z,102798.88
2019-04-20T09:00:50.013Z,102802.82
2019-04-20T09:03:24.527Z,102803.37
2019-04-20T09:05:57.795Z,102801.86
2019-04-20T09:08:27.473Z,102805.56
2019-04-20T09:11:10.233Z,102797.94
2019-04-20T09:13:35.344Z,102792.66
2019-04-20T09:15:57.896Z,102803.02
2019-04-20T09:18:42.127Z,102800.81
2019-04-20T09:21:13.722Z,102796.00
2019-04-20T09:23:52.197Z,102800.77
2019-04-20T09:26:26.917Z,102798.16
2019-04-20T09:28:59.214Z,102796.54
2019-04-20T09:31:39.232Z,102790.97
2019-04-20T09:34:23.290Z,102790.20
2019-04-20T09:37:11.526Z,102792.78
2019-04-20T09:39:53.307Z,102794.92
2019-04-20T09:42:33.769Z,102779.61
2019-04-20T09:45:06.273Z,102778.24
2019-04-20T09:47:43.321Z,102775.23
2019-04-20T09:50:27.783Z,102778.08
2019-04-20T09:52:59.241Z,102775.13
2019-04-20T09:55:29.525Z,102775.33
2019-04-20T09:58:02.443Z,102773.64
2019-04-20T10:00:36.946Z,102771.77
2019-04-20T10:02:52.615Z,102775.72
2019-04-20T10:05:27.396Z,102775.09
2019-04-20T10:08:01.227Z,102768.69
2019-04-20T10:10:35.970Z,102767.41
2019-04-20T10:13:02.508Z,102762.83
2019-04-20T10:15:33.092Z,102769.27
2019-04-20T10:18:03.768Z,102766.77
2019-04-20T10:20:37.916Z,102774.91
2019-04-20T10:23:06.824Z,102775.30
2019-04-20T10:25:38.420Z,102766.92
2019-04-20T10:28:09.434Z,102769.91
2019-04-20T10:30:40.840Z,102763.70
2019-04-20T10:33:11.404Z,102768.47
2019-04-20T10:35:41.947Z,102765.91
2019-04-20T10:38:17.944Z,102768.27
2019-04-20T10:40:58.474Z,102764.73
2019-04-20T10:43:21.871Z,102757.08
2019-04-20T10:45:53.055Z,102762.55
2019-04-20T10:48:23.655Z,102762.16
2019-04-20T10:50:54.825Z,102754.73
2019-04-20T10:53:25.996Z,102755.42
2019-04-20T10:55:57.759Z,102752.33
2019-04-20T10:58:29.584Z,102749.59
2019-04-20T11:01:00.248Z,102746.17
2019-04-20T11:03:30.728Z,102738.09
2019-04-20T11:06:02.717Z,102741.55
2019-04-20T11:08:34.752Z,102738.53
2019-04-20T11:11:13.037Z,102740.22
2019-04-20T11:13:37.771Z,102738.97
2019-04-20T11:16:08.595Z,102729.26
2019-04-20T11:18:39.761Z,102729.31
2019-04-20T11:21:11.452Z,102736.13
2019-04-20T11:23:42.454Z,102733.91
2019-04-20T11:26:14.078Z,102734.41
2019-04-20T11:28:44.647Z,102730.44
2019-04-20T11:31:16.465Z,102733.22
2019-04-20T11:33:48.051Z,102735.28
2019-04-20T11:36:19.188Z,102735.67
2019-04-20T11:38:51.097Z,102734.31
2019-04-20T11:41:27.168Z,102725.95
2019-04-20T11:43:53.976Z,102728.52
2019-04-20T11:46:24.986Z,102721.86
2019-04-20T11:48:55.476Z,102721.73
2019-04-20T11:51:26.038Z,102717.37
2019-04-20T11:53:56.574Z,102710.70
2019-04-20T11:56:33.380Z,102707.27
2019-04-20T11:59:00.843Z,102705.46
2019-04-20T12:01:49.368Z,102701.84
2019-04-20T12:04:27.107Z,102702.80
2019-04-20T12:06:48.844Z,102697.45
2019-04-20T12:09:19.359Z,102694.50
2019-04-20T12:12:02.140Z,102702.17
2019-04-20T12:14:23.183Z,102695.73
2019-04-20T12:16:53.732Z,102693.67
2019-04-20T12:19:24.846Z,102690.25
2019-04-20T12:21:55.831Z,102686.34
2019-04-20T12:24:26.392Z,102690.91
2019-04-20T12:26:56.843Z,102679.41
2019-04-20T12:29:27.977Z,102687.26
2019-04-20T12:32:02.238Z,102686.94
2019-04-20T12:34:30.820Z,102683.43
2019-04-20T12:37:01.311Z,102683.75
2019-04-20T12:39:33.134Z,102673.52
2019-04-20T12:42:07.539Z,102677.19
2019-04-20T12:44:36.033Z,102681.28
2019-04-20T12:47:07.669Z,102685.24
2019-04-20T12:49:38.253Z,102683.11
2019-04-20T12:52:08.728Z,102680.75
2019-04-20T12:54:42.587Z,102668.34
2019-04-20T12:57:11.439Z,102687.97
2019-04-20T12:59:44.328Z,102667.83
2019-04-20T13:02:15.417Z,102671.66
2019-04-20T13:04:46.143Z,102667.22
2019-04-20T13:07:17.705Z,102665.63
2019-04-20T13:09:54.789Z,102664.91
2019-04-20T13:12:41.014Z,102667.06
2019-04-20T13:15:36.437Z,102662.67
2019-04-20T13:18:07.702Z,102650.80
2019-04-20T13:20:39.608Z,102654.09
2019-04-20T13:23:10.967Z,102658.26
2019-04-20T13:25:41.614Z,102649.24
2019-04-20T13:28:12.866Z,102654.61
2019-04-20T13:30:43.899Z,102648.34
2019-04-20T13:33:14.354Z,102645.75
2019-04-20T13:35:46.108Z,102649.08
2019-04-20T13:38:16.741Z,102640.00
2019-04-20T13:40:48.168Z,102644.40
2019-04-20T13:43:19.688Z,102638.27
2019-04-20T13:45:50.986Z,102631.63
2019-04-20T13:48:21.583Z,102631.88
2019-04-20T13:50:52.105Z,102625.09
2019-04-20T13:53:23.407Z,102621.47
2019-04-20T13:55:54.124Z,102609.98
2019-04-20T13:59:01.939Z,102617.38
2019-04-20T14:01:39.023Z,102612.11
2019-04-20T14:04:15.581Z,102606.05
2019-04-20T14:06:47.832Z,102606.63
2019-04-20T14:09:19.392Z,102608.58
2019-04-20T14:11:51.638Z,102608.36
2019-04-20T14:14:23.476Z,102602.95
2019-04-20T14:16:54.790Z,102600.48
2019-04-20T14:19:25.393Z,102608.23
2019-04-20T14:21:56.450Z,102593.10
2019-04-20T14:24:27.154Z,102599.08
2019-04-20T14:26:58.944Z,102585.72
2019-04-20T14:29:30.561Z,102580.98
2019-04-20T14:32:03.526Z,102586.33
2019-04-20T14:34:33.429Z,102581.00
2019-04-20T14:37:03.083Z,102583.47
2019-04-20T14:39:32.514Z,102578.83
2019-04-20T14:42:02.588Z,102577.98
2019-04-20T14:44:32.160Z,102574.98
2019-04-20T14:47:01.589Z,102581.45
2019-04-20T14:49:32.552Z,102569.69
2019-04-20T14:52:03.129Z,102579.30
2019-04-20T14:54:33.199Z,102574.20
2019-04-20T14:57:03.430Z,102572.77
2019-04-20T14:59:37.761Z,102572.42
2019-04-20T15:02:10.495Z,102566.14
2019-04-20T15:04:41.242Z,102561.27
2019-04-20T15:07:10.927Z,102563.70
2019-04-20T15:09:40.668Z,102560.39
2019-04-20T15:12:10.885Z,102551.98
2019-04-20T15:14:40.852Z,102551.47
2019-04-20T15:17:12.169Z,102551.13
2019-04-20T15:19:59.779Z,102544.87
2019-04-20T15:22:29.784Z,102549.33
2019-04-20T15:24:59.959Z,102545.91
2019-04-20T15:27:30.332Z,102540.28
2019-04-20T15:30:00.330Z,102539.99
2019-04-20T15:32:31.242Z,102532.73
2019-04-20T15:35:00.807Z,102533.63
2019-04-20T15:37:30.925Z,102531.16
2019-04-20T15:40:01.225Z,102525.09
2019-04-20T15:42:30.722Z,102523.27
2019-04-20T15:45:01.137Z,102525.62
2019-04-20T15:47:31.992Z,102526.23
2019-04-20T15:50:02.302Z,102529.03
2019-04-20T15:52:39.960Z,102525.94
2019-04-20T15:55:10.185Z,102525.58
2019-04-20T15:57:34.889Z,102520.50
2019-04-20T16:00:06.671Z,102521.73
2019-04-20T16:02:59.139Z,102516.88
2019-04-20T16:05:53.657Z,102513.14
2019-04-20T16:08:26.127Z,102518.29
2019-04-20T16:10:57.112Z,102511.27
2019-04-20T16:13:35.086Z,102510.41
2019-04-20T16:15:58.148Z,102504.14
2019-04-20T16:18:27.600Z,102499.61
2019-04-20T16:21:05.553Z,102491.58
2019-04-20T16:23:30.426Z,102491.14
2019-04-20T16:26:05.925Z,102486.02
2019-04-20T16:28:35.486Z,102489.20
2019-04-20T16:31:08.049Z,102489.23
2019-04-20T16:33:36.708Z,102479.58
2019-04-20T16:36:06.359Z,102479.95
2019-04-20T16:38:37.209Z,102474.25
2019-04-20T16:41:06.729Z,102478.26
2019-04-20T16:43:42.546Z,102471.54
2019-04-20T16:46:10.925Z,102467.04
2019-04-20T16:48:42.153Z,102474.65
2019-04-20T16:51:13.218Z,102474.02
2019-04-20T16:53:43.875Z,102468.41
2019-04-20T16:56:16.105Z,102472.97
2019-04-20T16:58:49.601Z,102462.00
2019-04-20T17:01:19.383Z,102462.47
2019-04-20T17:03:59.847Z,102461.92
2019-04-20T17:06:22.792Z,102455.23
2019-04-20T17:08:54.531Z,102452.88
2019-04-20T17:11:25.728Z,102453.16
2019-04-20T17:13:59.583Z,102456.45
2019-04-20T17:16:28.647Z,102446.77
2019-04-20T17:18:59.635Z,102447.00
2019-04-20T17:21:31.955Z,102447.84
2019-04-20T17:24:03.565Z,102438.61
2019-04-20T17:26:43.612Z,102439.28
2019-04-20T17:29:19.856Z,102438.70
2019-04-20T17:32:01.277Z,102432.83
2019-04-20T17:34:50.596Z,102429.24
2019-04-20T17:37:04.549Z,102434.86
2019-04-20T17:39:45.345Z,102437.39
2019-04-20T17:42:23.749Z,102433.36
2019-04-20T17:44:49.278Z,102439.16
2019-04-20T17:47:31.298Z,102441.25
2019-04-20T17:50:06.920Z,102436.34
2019-04-20T17:52:40.373Z,102439.11
2019-04-20T17:54:56.013Z,102434.13
2019-04-20T17:57:26.432Z,102436.24
2019-04-20T18:00:14.808Z,102433.50
2019-04-20T18:03:04.572Z,102435.53
2019-04-20T18:05:49.926Z,102433.30
2019-04-20T18:08:26.720Z,102431.42
2019-04-20T18:10:50.718Z,102424.47
2019-04-20T18:13:18.477Z,102424.48
2019-04-20T18:15:59.247Z,102429.67
2019-04-20T18:18:47.891Z,102429.68
2019-04-20T18:21:28.754Z,102432.34
2019-04-20T18:24:00.415Z,102425.91
2019-04-20T18:26:47.957Z,102430.08
2019-04-20T18:29:30.795Z,102423.65
2019-04-20T18:31:45.319Z,102425.63
2019-04-20T18:34:34.200Z,102424.77
2019-04-20T18:37:06.453Z,102430.40
2019-04-20T18:39:43.796Z,102430.86
2019-04-20T18:42:19.837Z,102429.83
2019-04-20T18:45:03.865Z,102434.52
2019-04-20T18:47:34.696Z,102437.20
2019-04-20T18:49:58.561Z,102438.03
2019-04-20T18:52:19.821Z,102440.42
2019-04-20T18:54:53.629Z,102443.22
2019-04-20T18:57:27.277Z,102445.63
2019-04-20T18:59:56.846Z,102445.92
2019-04-20T19:02:33.558Z,102442.69
2019-04-20T19:05:03.087Z,102440.20
2019-04-20T19:07:40.118Z,102444.18
2019-04-20T19:10:14.545Z,102442.32
2019-04-20T19:12:49.353Z,102443.75
2019-04-20T19:15:56.265Z,102447.25
2019-04-20T19:18:47.762Z,102442.47
2019-04-20T19:21:03.447Z,102437.25
2019-04-20T19:23:36.660Z,102438.20
2019-04-20T19:26:11.988Z,102436.30
2019-04-20T19:28:45.244Z,102432.55
2019-04-20T19:31:25.257Z,102437.36
2019-04-20T19:34:09.044Z,102433.70
2019-04-20T19:36:28.100Z,102439.14
2019-04-20T19:39:01.292Z,102441.83
2019-04-20T19:41:31.979Z,102436.07
2019-04-20T19:44:09.165Z,102434.66
2019-04-20T19:47:03.276Z,102426.92
2019-04-20T19:49:08.176Z,102419.66
2019-04-20T19:51:55.365Z,102424.77
2019-04-20T19:54:27.801Z,102417.95
2019-04-20T19:56:52.420Z,102419.66
2019-04-20T19:59:16.053Z,102411.17
2019-04-20T20:01:39.884Z,102415.61
2019-04-20T20:04:11.931Z,102417.42
2019-04-20T20:06:49.016Z,102418.36
2019-04-20T20:09:17.790Z,102411.38
2019-04-20T20:11:48.494Z,102402.67
2019-04-20T20:14:30.588Z,102404.25
2019-04-20T20:17:12.920Z,102396.70
2019-04-20T20:19:38.529Z,102395.38
2019-04-20T20:22:08.978Z,102401.12
2019-04-20T20:24:29.201Z,102400.00
2019-04-20T20:27:04.198Z,102400.84
2019-04-20T20:29:38.368Z,102404.23
2019-04-20T20:32:18.751Z,102409.03
2019-04-20T20:34:42.184Z,102403.05
2019-04-20T20:37:11.121Z,102404.58
2019-04-20T20:39:51.119Z,102398.19
2019-04-20T20:42:23.587Z,102402.44
2019-04-20T20:44:52.693Z,102404.95
2019-04-20T20:47:41.124Z,102404.75
2019-04-20T20:50:14.741Z,102406.69
2019-04-20T20:52:39.379Z,102411.31
2019-04-20T20:55:06.099Z,102409.12
2019-04-20T20:57:38.529Z,102407.80
2019-04-20T21:00:06.256Z,102407.59
2019-04-20T21:02:44.095Z,102394.80
2019-04-20T21:05:05.993Z,102391.00
2019-04-20T21:07:36.599Z,102393.02
2019-04-20T21:10:08.307Z,102391.27
2019-04-20T21:12:46.500Z,102389.53
2019-04-20T21:15:17.185Z,102384.77
2019-04-20T21:18:10.862Z,102383.30
2019-04-20T21:20:38.133Z,102386.14
2019-04-20T21:23:03.883Z,102382.51
2019-04-20T21:25:36.053Z,102380.57
2019-04-20T21:28:00.871Z,102375.73
2019-04-20T21:30:38.020Z,102369.30
2019-04-20T21:33:05.557Z,102368.35
2019-04-20T21:35:40.670Z,102371.65
2019-04-20T21:38:11.410Z,102369.36
2019-04-20T21:40:44.994Z,102368.50
2019-04-20T21:43:13.228Z,102368.66
2019-04-20T21:45:54.886Z,102370.17
2019-04-20T21:48:40.568Z,102357.27
2019-04-20T21:51:14.003Z,102357.00
2019-04-20T21:53:26.617Z,102348.55
2019-04-20T21:55:55.244Z,102352.08
2019-04-20T21:58:32.490Z,102348.97
2019-04-20T22:01:10.792Z,102354.02
2019-04-20T22:03:32.066Z,102356.72
2019-04-20T22:06:10.731Z,102358.20
2019-04-20T22:08:45.943Z,102353.00
2019-04-20T22:11:17.798Z,102354.52
2019-04-20T22:13:49.464Z,102354.29
2019-04-20T22:16:22.695Z,102352.86
2019-04-20T22:19:14.607Z,102350.22
2019-04-20T22:21:46.282Z,102348.86
2019-04-20T22:24:33.080Z,102349.80
2019-04-20T22:26:58.919Z,102350.48
2019-04-20T22:29:23.998Z,102339.72
2019-04-20T22:32:00.505Z,102342.37
2019-04-20T22:34:28.435Z,102341.85
2019-04-20T22:36:59.905Z,102338.21
2019-04-20T22:39:39.708Z,102336.17
2019-04-20T22:42:09.710Z,102338.43
2019-04-20T22:44:39.272Z,102339.34
2019-04-20T22:47:16.105Z,102336.88
2019-04-20T22:50:05.618Z,102335.27
2019-04-20T22:52:32.526Z,102336.35
2019-04-20T22:55:12.736Z,102340.66
2019-04-20T22:57:38.759Z,102339.52
2019-04-20T22:59:59.645Z,102330.38
2019-04-20T23:02:26.438Z,102332.08
2019-04-20T23:04:57.185Z,102331.53
2019-04-20T23:07:28.480Z,102329.52
2019-04-20T23:10:01.556Z,102321.71
2019-04-20T23:12:32.192Z,102324.59
2019-04-20T23:15:04.638Z,102323.11
2019-04-20T23:17:39.973Z,102316.36
2019-04-20T23:20:15.159Z,102315.91
2019-04-20T23:22:43.970Z,102312.34
2019-04-20T23:25:13.312Z,102307.85
2019-04-20T23:27:44.024Z,102300.97
2019-04-20T23:30:23.358Z,102299.17
2019-04-20T23:32:46.898Z,102296.92
2019-04-20T23:35:20.145Z,102291.97
2019-04-20T23:37:50.735Z,102289.72
2019-04-20T23:40:21.693Z,102291.55
2019-04-20T23:42:58.042Z,102290.79
2019-04-20T23:45:52.749Z,102280.80
2019-04-20T23:48:32.413Z,102288.55
2019-04-20T23:51:24.873Z,102278.78
2019-04-20T23:53:43.866Z,102282.91
2019-04-20T23:56:05.923Z,102278.09
2019-04-20T23:58:42.927Z,102275.59
